KMPV/MPV METAR and TAF weather

Enter ICAO airport designator
Station Type Date Time Source
KMPV METAR 2022/12/04 10:51 UTC NOAA

KMPV 041051Z AUTO 31009KT 7SM -SN FEW030 SCT036 OVC050 M01/M06 A3011 RMK AO2 SLP209 P0000 T10111061


Station Type Date Time Source
KMPV Decoded METAR 2022/12/04 10:51 UTC NOAA

KNAPP STATE AIRPORT, VT, United States (KMPV) 44-12N 072-34W 343M
Dec 04, 2022 - 05:51 AM EST / 2022.12.04 1051 UTC
Wind: from the NW (310 degrees) at 10 MPH (9 KT):0
Visibility: 7 mile(s):0
Sky conditions: overcast
Weather: light snow
Precipitation last hour: A trace
Temperature: 30.0 F (-1.1 C)
Windchill: 21 F (-6 C):1
Dew Point: 21.0 F (-6.1 C)
Relative Humidity: 68%
Pressure (altimeter): 30.11 in. Hg (1019 hPa)
ob: KMPV 041051Z AUTO 31009KT 7SM -SN FEW030 SCT036 OVC050 M01/M06 A3011 RMK AO2 SLP209 P0000 T10111061
cycle: 11

Station Type Date Time Source
KMPV TAF 2022/12/04 06:22 UTC NOAA

TAF KMPV 040520Z 0406/0506 28011G25KT P6SM VCSH BKN035
FM040800 30009G16KT P6SM BKN035
FM042100 20005KT P6SM SCT050

Example: see airport list